Historyczne dane pomiarowe

Dodano dane terminowe – wersja testowa.

Dane z okresu 1951-2019

Wersja bazy: 1.34 [2019-03-16, lista zmian], aktualizacja planowana na 2019-04-15

Dane meteo z obszaru Polski uzyskane na podstawie danych udostępnionych przez Instytut Meteorologii i Gospodarki Wodnej – Państwowy Instytut Badawczy.

 

Wybierz Datę:    

       

TemperaturaWilgotnośćWiatrCiśnienieOpadyŚniegCzas trwania zjawisk
 Stacja t tx tn tng RH VA  wxwx mslp ppp RRR   cm mm wxwxwxwxwxwxwx
1983-04-17 4.3 10.9 -3.0 -8.1 72.0- 0.0 1.3---- 0.0------------
1983-04-18 4.9 11.1 -0.6 -3.6 68.5- 2.3 4.7---- 0.0------------
1983-04-19 7.2 14.0 -1.8 -2.1 66.0- 0.0 6.3---- 0.0------------
1983-04-20 11.6 18.1 7.1 3.9 71.5- 2.3 5.7---- 0.0------------
1983-04-21 12.0 21.0 0.0 -4.5 75.0- 0.0 3.3---- 0.0------------
1983-04-22 17.1 24.1 9.8 6.6 64.0- 2.0 6.0---- 0.0------------
1983-04-23 13.3 20.1 10.8 6.2 81.0- 4.3 2.3---- 3.8------------
1983-04-24 13.4 17.1 9.1 5.7 90.5- 7.3 2.7---- 4.6------------
1983-04-25 14.9 22.5 7.7 2.9 80.3- 0.0 2.7---- 0.0------------
1983-04-26 13.1 20.0 7.1 3.3 84.8- 2.7 2.7---- 0.0------------
1983-04-27 14.9 23.0 9.7 6.7 79.5- 4.0 3.3---- 0.0------------
1983-04-28 13.9 18.0 11.9 6.8 79.0- 3.3 5.7---- 0.0------------
1983-04-29 12.6 19.6 5.0 1.3 66.3- 3.0 2.7---- 0.0------------
1983-04-30 10.9 13.9 8.5 7.4 88.5- 6.7 4.0---- 13.4------------
1983-05-01 9.2 16.0 1.2 -2.1 78.0- 0.3 2.0---- 4.0------------
1983-05-02 11.1 14.1 9.1 5.8 95.8- 5.3 5.0---- 12.5------------
1983-05-03 12.2 15.1 8.7 6.7 76.8- 1.0 3.3---- 0.0------------
1983-05-04 11.1 13.8 8.8 3.2 83.5- 6.0 2.0---- 0.8------------
1983-05-05 8.1 10.7 6.8 1.6 99.3- 5.3 3.0---- 3.7------------
1983-05-06 7.9 10.1 3.0 0.9 90.8- 4.7 3.3---- 0.0------------
1983-05-07 8.8 13.1 5.2 1.2 71.5- 5.0 2.0---- 0.0------------
1983-05-08 10.0 15.6 1.1 -2.6 69.5- 2.3 3.3---- 0.0------------
1983-05-09 10.5 15.0 4.8 3.2 78.0- 5.3 5.7---- 1.1------------
1983-05-10 12.9 15.1 10.8 9.5 97.0- 6.3 3.3---- 4.9------------
1983-05-11 14.2 18.2 10.8 9.6 94.3- 1.7 3.3---- 18.1------------
1983-05-12 14.8 18.2 11.0 8.7 83.0- 3.3 3.3---- 0.0------------
1983-05-13 17.7 24.5 11.0 8.3 77.3- 4.7 3.0---- 0.7------------
1983-05-14 19.0 25.1 13.0 11.4 82.8- 0.7 4.7---- 0.0------------
1983-05-15 20.0 26.4 11.1 8.4 74.3- 2.0 3.0---- 0.0------------
1983-05-16 23.8 32.3 15.9 12.2 70.5- 0.0 3.3---- 0.0------------
144.2 ms

 

Źródłem pochodzenia danych jest Instytut Meteorologii i Gospodarki Wodnej – Państwowy Instytut Badawczy. Dane Instytutu Meteorologii i Gospodarki Wodnej – Państwowego Instytutu Badawczego zostały przetworzone.

Dane źródłowe można odnaleźć na stronie https://dane.imgw.pl